Flight Track Log - Related Links

Times and Time Zones

All times are in EDT time to prevent confusion due to time zone crossing. See the N693PD flight status page for this flight to view local times or setup timezone preferences in your user account.

Time Position Orientation Groundspeed Altitude Reporting Facility
EDT Latitude Longitude Course Direction KTS MPH feet Rate Location/Type
Fri 09:05:03 PM 30.4556 -86.4950 21° North 123 142 2,500  Level Jacksonville Center
Fri 09:06:03 PM 30.5014 -86.5017 353° North 146 168 4,100 1,650 Climbing Jacksonville Center
Fri 09:07:03 PM 30.5492 -86.5106 351° North 161 185 5,800 1,750 Climbing Jacksonville Center
Fri 09:08:03 PM 30.5950 -86.5172 353° North 166 191 7,600 1,600 Climbing Jacksonville Center
Fri 09:09:03 PM 30.6394 -86.4972 21° North 161 185 9,000 1,400 Climbing Jacksonville Center
Fri 09:10:00 PM 30.8125 -86.2704 21° North  Level FlightAware Approximate
Fri 09:10:03 PM 30.6858 -86.4722 25° Northeast 163 188 10,400  Level Jacksonville Center
Fri 09:11:03 PM 30.7347 -86.4453 25° Northeast 184 212 11,900 1,450 Climbing Jacksonville Center
Fri 09:12:03 PM 30.7878 -86.4158 25° Northeast 190 219 13,300 1,350 Climbing Jacksonville Center
Fri 09:13:03 PM 30.8406 -86.3911 22° Northeast 200 230 14,600 1,350 Climbing Jacksonville Center
Fri 09:14:03 PM 30.8914 -86.3664 23° Northeast 200 230 16,000 1,300 Climbing Jacksonville Center
Fri 09:15:03 PM 30.9422 -86.3417 23° Northeast 195 224 17,200 1,000 Climbing Jacksonville Center
Fri 09:16:03 PM 30.9972 -86.3097 26° Northeast 200 230 18,000 750 Climbing Jacksonville Center
Fri 09:17:03 PM 31.0417 -86.2869 24° Northeast 200 230 18,700 500 Climbing Jacksonville Center
Fri 09:18:03 PM 31.1033 -86.2506 27° Northeast 206 237 19,000 150 Climbing Jacksonville Center
Fri 09:19:03 PM 31.1731 -86.2189 21° North 239 275 19,000  Level Jacksonville Center
Fri 09:20:03 PM 31.2428 -86.1825 24° Northeast 259 298 19,000  Level Jacksonville Center
Fri 09:22:17 PM 31.4019 -86.0947 25° Northeast 269 310 19,000  Level Atlanta Center
Fri 09:23:18 PM 31.4756 -86.0550 25° Northeast 275 316 19,000  Level Atlanta Center
Fri 09:24:17 PM 31.5450 -86.0175 25° Northeast 275 316 19,000  Level Atlanta Center
Fri 09:25:18 PM 31.6167 -85.9800 24° Northeast 280 322 19,000  Level Atlanta Center
Fri 09:26:17 PM 31.6903 -85.9425 23° Northeast 280 322 19,000  Level Atlanta Center
Fri 09:27:18 PM 31.7703 -85.9003 24° Northeast 280 322 19,000  Level Atlanta Center
Fri 09:28:17 PM 31.8439 -85.8603 25° Northeast 280 322 19,000  Level Atlanta Center
Fri 09:29:17 PM 31.9153 -85.8225 24° Northeast 274 315 19,000  Level Atlanta Center
Fri 09:30:17 PM 31.9889 -85.7825 25° Northeast 279 321 19,000  Level Atlanta Center
Fri 09:31:17 PM 32.0606 -85.7422 25° Northeast 279 321 19,000 -50 Level Atlanta Center
Fri 09:32:17 PM 32.1342 -85.7042 24° Northeast 279 321 18,900 -500 Descending Atlanta Center
Fri 09:33:17 PM 32.2097 -85.6639 24° Northeast 279 321 18,000 -800 Descending Atlanta Center
Fri 09:34:17 PM 32.2856 -85.6211 25° Northeast 285 328 17,300 -800 Descending Atlanta Center
Fri 09:35:17 PM 32.3631 -85.5806 24° Northeast 285 328 16,400 -850 Descending Atlanta Center
Fri 09:36:17 PM 32.4431 -85.5378 24° Northeast 297 342 15,600 -850 Descending Atlanta Center
Fri 09:37:17 PM 32.5228 -85.4922 26° Northeast 303 349 14,700 -900 Descending Atlanta Center
Fri 09:38:17 PM 32.6028 -85.4517 23° Northeast 303 349 13,800 -900 Descending Atlanta Center
Fri 09:39:17 PM 32.6761 -85.4083 26° Northeast 298 343 12,900 -950 Descending Atlanta Center
Fri 09:40:17 PM 32.7517 -85.3678 24° Northeast 298 343 11,900 -1,000 Descending Atlanta Center
Fri 09:41:17 PM 32.8253 -85.3267 25° Northeast 298 343 10,900 -950 Descending Atlanta Center
Fri 09:42:17 PM 32.8986 -85.2906 22° Northeast 298 343 10,000 -950 Descending Atlanta Center
Fri 09:43:17 PM 32.9700 -85.2472 27° Northeast 292 336 9,000 -1,000 Descending Atlanta Center
Fri 09:44:17 PM 33.0414 -85.2083 25° Northeast 287 330 8,000 -985 Descending Atlanta Center
Fri 09:46:32 PM 33.2167 -85.1500 16° North 284 327 5,800 -923 Descending Atlanta TRACON
Fri 09:47:32 PM 33.2833 -85.1333 12° North 276 318 5,000 -421 Descending Atlanta TRACON
Fri 09:48:26 PM 33.3500 -85.1167 12° North 270 311 5,000  Level Atlanta TRACON
Fri 09:49:26 PM 33.4333 -85.1167 360° North 269 310 5,000  Level Atlanta TRACON
Fri 09:50:20 PM 33.5000 -85.1167 360° North 269 310 5,000 -150 Level Atlanta TRACON
Fri 09:51:26 PM 33.5833 -85.1167 360° North 265 305 4,700 -500 Descending Atlanta TRACON
Fri 09:52:20 PM 33.6500 -85.1000 12° North 262 302 4,000 -389 Descending Atlanta TRACON
Fri 09:53:14 PM 33.7000 -85.1000 360° North 242 278 4,000  Level Atlanta TRACON
Fri 09:54:14 PM 33.7667 -85.1000 360° North 227 261 4,000  Level Atlanta TRACON
Fri 09:55:20 PM 33.8333 -85.1000 360° North 215 247 4,000  Level Atlanta TRACON
Fri 09:56:20 PM 33.8667 -85.0500 51° Northeast 207 238 4,000  Level Atlanta TRACON
Fri 09:57:14 PM 33.9000 -85.0000 51° Northeast 205 236 4,000 -278 Level Atlanta TRACON
Fri 09:58:08 PM 33.9333 -84.9667 40° Northeast 206 237 3,500 -526 Descending Atlanta TRACON
Fri 09:59:08 PM 33.9667 -84.9000 59° Northeast 201 231 3,000 -250 Descending Atlanta TRACON
Fri 10:00:08 PM 34.0000 -84.8500 51° Northeast 191 220 3,000  Level Atlanta TRACON
Fri 10:01:08 PM 34.0000 -84.8000 90° East 147 169 3,000  Level Atlanta TRACON
Fri 10:02:08 PM 34.0167 -84.7500 68° East 155 178 3,000  Level Atlanta TRACON
Fri 10:03:08 PM 34.0167 -84.7000 90° East 143 165 3,000 -350 Level Atlanta TRACON
Fri 10:04:08 PM 34.0167 -84.6667 90° East 117 135 2,300 -632 Descending Atlanta TRACON
Fri 10:05:02 PM 34.0167 -84.6333 90° East 112 129 1,800 -556 Descending Atlanta TRACON
Fri 10:07:00 PM 34.0132 -84.5971 90° East  Level Estimated
Fri 10:14:00 PM 34.0132 -84.5971 90° East  Level Estimated

Login

Don't have an account? Register now (free) for customized features, flight alerts, and more!